Latest Conditions
At L.F.Wade Int. Airport
Recorded at 4:55 pm
Showers
Temp.: 
24°C/76°F
Humidity: 
83%
Wind: 
ESE 11KT
or 13mph
UV Index: 
3
Island Observations
Observations
Thursday, May 26, 2016

Observations are in local time and taken at least once an hour, or upon the start and end of specified events such as showers and thunderstorms.

Time Sky / Weather Wind Speed/Gusts Temp. R.H. Pressure
     knots (mph)  °C (°F)  %  mb / "Hg
 16:55 Mostly Cloudy Showers ESE 11/0 (13/0) 24(76) 83 1022 / 30.19
 15:55 Mostly Cloudy Showers ESE 8/0 (9/0) 25(77) 79 1023 / 30.20
 14:55 Mostly Cloudy Showers ENE 5/0 (6/0) 24(75) 83 1023 / 30.21
 14:28 Mostly Cloudy Showers ENE 7/0 (8/0) 23(73) 86 1023 / 30.21
 14:15 Mostly Cloudy Drizzle ENE 8/0 (9/0) 23(73) 88 1023 / 30.21
 14:09 Mostly Cloudy Showers ENE 8/0 (9/0) 23(73) 89 1023 / 30.22
 13:55 Overcast Showers ENE 10/0 (12/0) 23(74) 83 1023 / 30.22
 13:36 Overcast Showers ENE 11/0 (13/0) 24(75) 86 1023 / 30.22
 13:04 Mostly Cloudy Showers ENE 11/0 (13/0) 23(74) 84 1023 / 30.22
 12:55 Mostly Cloudy Showers ENE 9/0 (10/0) 24(74) 84 1023 / 30.22
 11:55 Mostly Cloudy Showers SSE 4/0 (5/0) 25(77) 78 1024 / 30.23
 10:55 Mostly Cloudy Showers ENE 6/0 (7/0) 24(75) 84 1024 / 30.23
 10:06 Mostly Cloudy  ENE 8/0 (9/0) 24(74) 85 1024 / 30.23
 09:55 Overcast  ENE 8/0 (9/0) 24(75) 83 1024 / 30.23
 08:55 Mostly Cloudy  ENE 8/0 (9/0) 24(75) 84 1023 / 30.22
 08:17 Mostly Cloudy  NE 5/0 (6/0) 23(74) 86 1023 / 30.22
 07:55 Mostly Cloudy  NE 5/0 (6/0) 23(73) 88 1023 / 30.22
 07:33 Mostly Cloudy  E 4/0 (5/0) 23(73) 90 1023 / 30.21
 06:55 Mostly Cloudy  E 4/0 (5/0) 22(71) 92 1023 / 30.20
 05:55 Mostly Cloudy  NE 2/0 (2/0) 22(71) 93 1022 / 30.18
 04:55 Mostly Cloudy  NNE 1/0 (1/0) 22(71) 92 1022 / 30.18
 03:55 Mostly Cloudy  N 2/0 (2/0) 22(72) 91 1022 / 30.18
 02:55 Mostly Cloudy  SW 2/0 (2/0) 22(72) 91 1022 / 30.19
 01:55 Mostly Cloudy  S 3/0 (3/0) 22(72) 90 1023 / 30.20
Observations from our AWOS sites are available here (password and username are both 'guest').